sensor_id;sensor_type;location;lat;lon;timestamp;pressure;altitude;pressure_sealevel;temperature;humidity
39739;BME280;25422;48.286;8.484;2023-02-18T00:02:02;95073.44;;;6.55;100.00
39739;BME280;25422;48.286;8.484;2023-02-18T00:04:28;95068.94;;;6.57;100.00
39739;BME280;25422;48.286;8.484;2023-02-18T00:06:53;95074.59;;;6.62;100.00
39739;BME280;25422;48.286;8.484;2023-02-18T00:09:19;95074.16;;;6.57;100.00
39739;BME280;25422;48.286;8.484;2023-02-18T00:11:44;95067.63;;;6.63;100.00
39739;BME280;25422;48.286;8.484;2023-02-18T00:14:11;95063.00;;;6.66;100.00
39739;BME280;25422;48.286;8.484;2023-02-18T00:16:37;95054.94;;;6.69;100.00
39739;BME280;25422;48.286;8.484;2023-02-18T00:19:04;95055.63;;;6.71;100.00
39739;BME280;25422;48.286;8.484;2023-02-18T00:21:32;95057.81;;;6.66;100.00
39739;BME280;25422;48.286;8.484;2023-02-18T00:23:58;95056.28;;;6.64;100.00
39739;BME280;25422;48.286;8.484;2023-02-18T00:26:24;95052.16;;;6.61;100.00
39739;BME280;25422;48.286;8.484;2023-02-18T00:28:49;95045.66;;;6.55;100.00
39739;BME280;25422;48.286;8.484;2023-02-18T00:31:24;95042.75;;;6.49;100.00
39739;BME280;25422;48.286;8.484;2023-02-18T00:33:50;95039.75;;;6.53;100.00
39739;BME280;25422;48.286;8.484;2023-02-18T00:36:18;95042.28;;;6.44;100.00
39739;BME280;25422;48.286;8.484;2023-02-18T00:38:49;95045.94;;;6.41;100.00
39739;BME280;25422;48.286;8.484;2023-02-18T00:41:16;95050.31;;;6.40;100.00
39739;BME280;25422;48.286;8.484;2023-02-18T00:43:43;95049.25;;;6.43;100.00
39739;BME280;25422;48.286;8.484;2023-02-18T00:46:08;95042.97;;;6.46;100.00
39739;BME280;25422;48.286;8.484;2023-02-18T00:48:34;95031.88;;;6.44;100.00
39739;BME280;25422;48.286;8.484;2023-02-18T00:51:02;95034.94;;;6.49;100.00
39739;BME280;25422;48.286;8.484;2023-02-18T00:53:28;95034.34;;;6.45;100.00
39739;BME280;25422;48.286;8.484;2023-02-18T00:55:54;95029.16;;;6.45;100.00
39739;BME280;25422;48.286;8.484;2023-02-18T00:58:20;95030.72;;;6.36;100.00
39739;BME280;25422;48.286;8.484;2023-02-18T01:00:46;95037.13;;;6.32;100.00
39739;BME280;25422;48.286;8.484;2023-02-18T01:03:11;95035.81;;;6.27;100.00
39739;BME280;25422;48.286;8.484;2023-02-18T01:05:37;95028.38;;;6.22;100.00
39739;BME280;25422;48.286;8.484;2023-02-18T01:08:05;95027.78;;;6.30;100.00
39739;BME280;25422;48.286;8.484;2023-02-18T01:10:31;95020.97;;;6.17;100.00
39739;BME280;25422;48.286;8.484;2023-02-18T01:12:57;95015.78;;;6.06;100.00
39739;BME280;25422;48.286;8.484;2023-02-18T01:15:22;95027.00;;;6.06;100.00
39739;BME280;25422;48.286;8.484;2023-02-18T01:17:48;95013.81;;;5.98;100.00
39739;BME280;25422;48.286;8.484;2023-02-18T01:20:14;95024.88;;;5.89;100.00
39739;BME280;25422;48.286;8.484;2023-02-18T01:22:40;95023.13;;;5.78;100.00
39739;BME280;25422;48.286;8.484;2023-02-18T01:25:07;95026.75;;;5.87;100.00
39739;BME280;25422;48.286;8.484;2023-02-18T01:27:33;95029.63;;;5.72;100.00
39739;BME280;25422;48.286;8.484;2023-02-18T01:30:00;95027.84;;;5.73;100.00
39739;BME280;25422;48.286;8.484;2023-02-18T01:32:25;95020.19;;;5.71;100.00
39739;BME280;25422;48.286;8.484;2023-02-18T01:34:51;95012.75;;;5.78;100.00
39739;BME280;25422;48.286;8.484;2023-02-18T01:37:16;95007.16;;;5.83;100.00
39739;BME280;25422;48.286;8.484;2023-02-18T01:39:41;95010.94;;;5.79;100.00
39739;BME280;25422;48.286;8.484;2023-02-18T01:42:18;95013.44;;;5.80;100.00
39739;BME280;25422;48.286;8.484;2023-02-18T01:44:45;95019.94;;;5.74;100.00
39739;BME280;25422;48.286;8.484;2023-02-18T01:47:11;95015.78;;;5.72;100.00
39739;BME280;25422;48.286;8.484;2023-02-18T01:49:37;95007.88;;;5.73;100.00
39739;BME280;25422;48.286;8.484;2023-02-18T01:52:10;95001.97;;;5.83;100.00
39739;BME280;25422;48.286;8.484;2023-02-18T01:54:44;95000.78;;;5.87;100.00
39739;BME280;25422;48.286;8.484;2023-02-18T01:57:13;95001.84;;;5.96;100.00
39739;BME280;25422;48.286;8.484;2023-02-18T01:59:53;95000.06;;;6.07;100.00
39739;BME280;25422;48.286;8.484;2023-02-18T02:02:21;94998.06;;;6.11;100.00
39739;BME280;25422;48.286;8.484;2023-02-18T02:04:48;95000.41;;;6.14;100.00
39739;BME280;25422;48.286;8.484;2023-02-18T02:07:15;95006.19;;;6.18;100.00
39739;BME280;25422;48.286;8.484;2023-02-18T02:09:42;94990.78;;;6.37;100.00
39739;BME280;25422;48.286;8.484;2023-02-18T02:15:21;94987.22;;;6.38;100.00
39739;BME280;25422;48.286;8.484;2023-02-18T02:21:08;94981.53;;;6.45;100.00
39739;BME280;25422;48.286;8.484;2023-02-18T02:23:46;94994.78;;;6.41;100.00
39739;BME280;25422;48.286;8.484;2023-02-18T02:26:38;94972.69;;;6.47;100.00
39739;BME280;25422;48.286;8.484;2023-02-18T02:29:45;94969.94;;;6.49;100.00
39739;BME280;25422;48.286;8.484;2023-02-18T02:33:02;94987.31;;;6.48;100.00
39739;BME280;25422;48.286;8.484;2023-02-18T02:35:27;94990.34;;;6.53;100.00
39739;BME280;25422;48.286;8.484;2023-02-18T02:38:17;94975.34;;;6.57;100.00
39739;BME280;25422;48.286;8.484;2023-02-18T02:46:36;94976.00;;;6.70;100.00
39739;BME280;25422;48.286;8.484;2023-02-18T02:49:15;94980.63;;;6.67;100.00
39739;BME280;25422;48.286;8.484;2023-02-18T02:51:50;94976.00;;;6.70;100.00
39739;BME280;25422;48.286;8.484;2023-02-18T02:54:24;94976.53;;;6.74;100.00
39739;BME280;25422;48.286;8.484;2023-02-18T02:59:37;94983.72;;;6.82;100.00
39739;BME280;25422;48.286;8.484;2023-02-18T03:02:24;94980.88;;;6.85;100.00
39739;BME280;25422;48.286;8.484;2023-02-18T03:05:30;94980.88;;;6.85;100.00
39739;BME280;25422;48.286;8.484;2023-02-18T03:10:59;94978.16;;;6.86;100.00
39739;BME280;25422;48.286;8.484;2023-02-18T03:19:29;94976.63;;;6.84;100.00
39739;BME280;25422;48.286;8.484;2023-02-18T03:22:08;94977.44;;;6.84;100.00
39739;BME280;25422;48.286;8.484;2023-02-18T03:24:38;94974.59;;;6.87;100.00
39739;BME280;25422;48.286;8.484;2023-02-18T03:27:17;94973.78;;;6.87;100.00
39739;BME280;25422;48.286;8.484;2023-02-18T03:29:48;94974.13;;;6.82;100.00
39739;BME280;25422;48.286;8.484;2023-02-18T03:32:17;94974.47;;;6.89;100.00
39739;BME280;25422;48.286;8.484;2023-02-18T03:34:48;94965.16;;;6.86;100.00
39739;BME280;25422;48.286;8.484;2023-02-18T03:37:15;94966.22;;;6.84;100.00
39739;BME280;25422;48.286;8.484;2023-02-18T03:39:45;94964.91;;;6.89;100.00
39739;BME280;25422;48.286;8.484;2023-02-18T03:42:15;94958.97;;;6.87;100.00
39739;BME280;25422;48.286;8.484;2023-02-18T03:44:41;94952.97;;;6.87;100.00
39739;BME280;25422;48.286;8.484;2023-02-18T03:47:06;94956.91;;;6.81;100.00
39739;BME280;25422;48.286;8.484;2023-02-18T03:49:32;94954.63;;;6.88;100.00
39739;BME280;25422;48.286;8.484;2023-02-18T03:51:58;94956.31;;;6.78;100.00
39739;BME280;25422;48.286;8.484;2023-02-18T03:54:24;94947.53;;;6.69;100.00
39739;BME280;25422;48.286;8.484;2023-02-18T03:56:49;94942.00;;;6.62;100.00
39739;BME280;25422;48.286;8.484;2023-02-18T03:59:14;94936.97;;;6.49;100.00
39739;BME280;25422;48.286;8.484;2023-02-18T04:01:40;94933.56;;;6.49;100.00
39739;BME280;25422;48.286;8.484;2023-02-18T04:04:05;94933.56;;;6.49;100.00
39739;BME280;25422;48.286;8.484;2023-02-18T04:06:31;94931.63;;;6.51;100.00
39739;BME280;25422;48.286;8.484;2023-02-18T04:08:56;94926.31;;;6.52;100.00
39739;BME280;25422;48.286;8.484;2023-02-18T04:11:21;94935.31;;;6.48;100.00
39739;BME280;25422;48.286;8.484;2023-02-18T04:13:47;94931.50;;;6.52;100.00
39739;BME280;25422;48.286;8.484;2023-02-18T04:16:13;94931.16;;;6.57;100.00
39739;BME280;25422;48.286;8.484;2023-02-18T04:18:38;94926.41;;;6.62;100.00
39739;BME280;25422;48.286;8.484;2023-02-18T04:21:04;94928.56;;;6.57;100.00
39739;BME280;25422;48.286;8.484;2023-02-18T04:23:29;94928.56;;;6.57;100.00
39739;BME280;25422;48.286;8.484;2023-02-18T04:25:55;94918.16;;;6.57;100.00
39739;BME280;25422;48.286;8.484;2023-02-18T04:28:20;94921.19;;;6.62;100.00
39739;BME280;25422;48.286;8.484;2023-02-18T04:30:46;94908.44;;;6.59;100.00
39739;BME280;25422;48.286;8.484;2023-02-18T04:33:12;94903.22;;;6.59;100.00
39739;BME280;25422;48.286;8.484;2023-02-18T04:35:37;94910.34;;;6.57;100.00
39739;BME280;25422;48.286;8.484;2023-02-18T04:38:06;94904.69;;;6.52;100.00
39739;BME280;25422;48.286;8.484;2023-02-18T04:40:32;94897.63;;;6.54;100.00
39739;BME280;25422;48.286;8.484;2023-02-18T04:42:57;94898.22;;;6.46;100.00
39739;BME280;25422;48.286;8.484;2023-02-18T04:45:24;94903.03;;;6.51;100.00
39739;BME280;25422;48.286;8.484;2023-02-18T04:47:49;94887.72;;;6.48;100.00
39739;BME280;25422;48.286;8.484;2023-02-18T04:50:15;94898.16;;;6.57;100.00
39739;BME280;25422;48.286;8.484;2023-02-18T04:52:40;94900.41;;;6.62;100.00
39739;BME280;25422;48.286;8.484;2023-02-18T04:55:06;94909.41;;;6.58;100.00
39739;BME280;25422;48.286;8.484;2023-02-18T04:57:31;94908.63;;;6.67;100.00
39739;BME280;25422;48.286;8.484;2023-02-18T04:59:57;94913.72;;;6.69;100.00
39739;BME280;25422;48.286;8.484;2023-02-18T05:02:22;94916.31;;;6.69;100.00
39739;BME280;25422;48.286;8.484;2023-02-18T05:04:47;94902.59;;;6.67;100.00
39739;BME280;25422;48.286;8.484;2023-02-18T05:07:13;94902.09;;;6.73;100.00
39739;BME280;25422;48.286;8.484;2023-02-18T05:09:38;94899.88;;;6.68;100.00
39739;BME280;25422;48.286;8.484;2023-02-18T05:12:05;94891.44;;;6.55;100.00
39739;BME280;25422;48.286;8.484;2023-02-18T05:14:30;94893.72;;;6.48;100.00
39739;BME280;25422;48.286;8.484;2023-02-18T05:16:55;94895.88;;;6.64;100.00
39739;BME280;25422;48.286;8.484;2023-02-18T05:19:21;94902.47;;;6.68;100.00
39739;BME280;25422;48.286;8.484;2023-02-18T05:21:46;94901.34;;;6.61;100.00
39739;BME280;25422;48.286;8.484;2023-02-18T05:24:11;94887.31;;;6.73;100.00
39739;BME280;25422;48.286;8.484;2023-02-18T05:26:37;94901.53;;;6.69;100.00
39739;BME280;25422;48.286;8.484;2023-02-18T05:29:03;94890.63;;;6.75;100.00
39739;BME280;25422;48.286;8.484;2023-02-18T05:31:28;94895.81;;;6.75;100.00
39739;BME280;25422;48.286;8.484;2023-02-18T05:33:54;94895.69;;;6.77;100.00
39739;BME280;25422;48.286;8.484;2023-02-18T05:36:20;94888.25;;;6.72;100.00
39739;BME280;25422;48.286;8.484;2023-02-18T05:38:46;94880.91;;;6.78;100.00
39739;BME280;25422;48.286;8.484;2023-02-18T05:41:11;94875.06;;;6.85;100.00
39739;BME280;25422;48.286;8.484;2023-02-18T05:43:37;94884.13;;;6.91;100.00
39739;BME280;25422;48.286;8.484;2023-02-18T05:46:22;94879.38;;;6.96;100.00
39739;BME280;25422;48.286;8.484;2023-02-18T05:48:48;94872.78;;;6.92;100.00
39739;BME280;25422;48.286;8.484;2023-02-18T05:51:13;94876.16;;;6.83;100.00
39739;BME280;25422;48.286;8.484;2023-02-18T05:53:39;94881.94;;;6.86;100.00
39739;BME280;25422;48.286;8.484;2023-02-18T05:56:06;94865.22;;;6.89;100.00
39739;BME280;25422;48.286;8.484;2023-02-18T05:58:31;94868.78;;;6.88;100.00
39739;BME280;25422;48.286;8.484;2023-02-18T06:00:57;94877.66;;;6.85;100.00
39739;BME280;25422;48.286;8.484;2023-02-18T06:03:22;94873.53;;;6.83;100.00
39739;BME280;25422;48.286;8.484;2023-02-18T06:05:51;94872.84;;;6.81;100.00
39739;BME280;25422;48.286;8.484;2023-02-18T06:08:16;94866.38;;;6.75;100.00
39739;BME280;25422;48.286;8.484;2023-02-18T06:10:44;94860.81;;;6.80;100.00
39739;BME280;25422;48.286;8.484;2023-02-18T06:13:09;94871.84;;;6.72;100.00
39739;BME280;25422;48.286;8.484;2023-02-18T06:15:34;94871.22;;;6.80;100.00
39739;BME280;25422;48.286;8.484;2023-02-18T06:18:00;94863.28;;;6.81;100.00
39739;BME280;25422;48.286;8.484;2023-02-18T06:20:25;94874.19;;;6.75;100.00
39739;BME280;25422;48.286;8.484;2023-02-18T06:22:51;94874.19;;;6.75;100.00
39739;BME280;25422;48.286;8.484;2023-02-18T06:25:16;94881.53;;;6.70;100.00
39739;BME280;25422;48.286;8.484;2023-02-18T06:27:41;94886.75;;;6.70;100.00
39739;BME280;25422;48.286;8.484;2023-02-18T06:30:07;94886.75;;;6.70;100.00
39739;BME280;25422;48.286;8.484;2023-02-18T06:32:32;94888.03;;;6.75;100.00
39739;BME280;25422;48.286;8.484;2023-02-18T06:34:58;94878.00;;;6.71;100.00
39739;BME280;25422;48.286;8.484;2023-02-18T06:37:23;94877.09;;;6.82;100.00
39739;BME280;25422;48.286;8.484;2023-02-18T06:39:49;94879.13;;;6.78;100.00
39739;BME280;25422;48.286;8.484;2023-02-18T06:42:14;94874.31;;;6.73;100.00
39739;BME280;25422;48.286;8.484;2023-02-18T06:44:40;94875.53;;;6.69;100.00
39739;BME280;25422;48.286;8.484;2023-02-18T06:47:05;94873.88;;;6.68;100.00
39739;BME280;25422;48.286;8.484;2023-02-18T06:49:31;94862.69;;;6.78;100.00
39739;BME280;25422;48.286;8.484;2023-02-18T06:51:57;94869.28;;;6.82;100.00
39739;BME280;25422;48.286;8.484;2023-02-18T06:54:22;94855.66;;;6.89;100.00
39739;BME280;25422;48.286;8.484;2023-02-18T06:56:49;94853.53;;;6.83;100.00
39739;BME280;25422;48.286;8.484;2023-02-18T06:59:15;94856.16;;;6.83;100.00
39739;BME280;25422;48.286;8.484;2023-02-18T07:01:40;94854.56;;;6.92;100.00
39739;BME280;25422;48.286;8.484;2023-02-18T07:04:05;94851.97;;;6.92;100.00
39739;BME280;25422;48.286;8.484;2023-02-18T07:06:31;94852.63;;;6.94;100.00
39739;BME280;25422;48.286;8.484;2023-02-18T07:08:56;94850.34;;;7.01;100.00
39739;BME280;25422;48.286;8.484;2023-02-18T07:11:21;94855.84;;;7.07;100.00
39739;BME280;25422;48.286;8.484;2023-02-18T07:13:48;94846.97;;;7.10;100.00
39739;BME280;25422;48.286;8.484;2023-02-18T07:16:13;94856.56;;;7.09;100.00
39739;BME280;25422;48.286;8.484;2023-02-18T07:18:39;94861.75;;;7.09;100.00
39739;BME280;25422;48.286;8.484;2023-02-18T07:21:04;94852.31;;;7.18;100.00
39739;BME280;25422;48.286;8.484;2023-02-18T07:23:29;94840.81;;;7.21;100.00
39739;BME280;25422;48.286;8.484;2023-02-18T07:26:07;94851.91;;;7.23;100.00
39739;BME280;25422;48.286;8.484;2023-02-18T07:28:33;94853.19;;;7.29;100.00
39739;BME280;25422;48.286;8.484;2023-02-18T07:30:59;94853.31;;;7.27;100.00
39739;BME280;25422;48.286;8.484;2023-02-18T07:33:24;94852.91;;;7.32;100.00
39739;BME280;25422;48.286;8.484;2023-02-18T07:35:54;94857.72;;;7.36;100.00
39739;BME280;25422;48.286;8.484;2023-02-18T07:38:20;94855.41;;;7.43;100.00
39739;BME280;25422;48.286;8.484;2023-02-18T07:40:46;94855.69;;;7.50;100.00
39739;BME280;25422;48.286;8.484;2023-02-18T07:43:11;94860.91;;;7.50;100.00
39739;BME280;25422;48.286;8.484;2023-02-18T07:45:37;94859.66;;;7.54;100.00
39739;BME280;25422;48.286;8.484;2023-02-18T07:48:03;94869.28;;;7.63;100.00
39739;BME280;25422;48.286;8.484;2023-02-18T07:50:29;94861.63;;;7.62;100.00
39739;BME280;25422;48.286;8.484;2023-02-18T07:53:03;94870.09;;;7.64;100.00
39739;BME280;25422;48.286;8.484;2023-02-18T07:55:29;94878.06;;;7.62;100.00
39739;BME280;25422;48.286;8.484;2023-02-18T07:58:15;94872.31;;;7.68;100.00
39739;BME280;25422;48.286;8.484;2023-02-18T08:00:40;94875.59;;;7.70;100.00
39739;BME280;25422;48.286;8.484;2023-02-18T08:03:06;94862.75;;;7.79;100.00
39739;BME280;25422;48.286;8.484;2023-02-18T08:05:31;94866.84;;;7.81;100.00
39739;BME280;25422;48.286;8.484;2023-02-18T08:07:56;94871.66;;;7.86;100.00
39739;BME280;25422;48.286;8.484;2023-02-18T08:10:22;94875.78;;;7.88;100.00
39739;BME280;25422;48.286;8.484;2023-02-18T08:12:47;94862.47;;;7.91;100.00
39739;BME280;25422;48.286;8.484;2023-02-18T08:15:13;94866.59;;;7.94;100.00
39739;BME280;25422;48.286;8.484;2023-02-18T08:17:39;94861.09;;;7.97;100.00
39739;BME280;25422;48.286;8.484;2023-02-18T08:20:05;94861.94;;;8.07;100.00
39739;BME280;25422;48.286;8.484;2023-02-18T08:22:31;94868.53;;;8.12;100.00
39739;BME280;25422;48.286;8.484;2023-02-18T08:24:56;94861.66;;;8.10;100.00
39739;BME280;25422;48.286;8.484;2023-02-18T08:27:22;94861.78;;;8.19;100.00
39739;BME280;25422;48.286;8.484;2023-02-18T08:29:48;94865.09;;;8.21;100.00
39739;BME280;25422;48.286;8.484;2023-02-18T08:32:13;94865.09;;;8.21;100.00
39739;BME280;25422;48.286;8.484;2023-02-18T08:34:39;94870.84;;;8.24;100.00
39739;BME280;25422;48.286;8.484;2023-02-18T08:37:04;94860.00;;;8.29;100.00
39739;BME280;25422;48.286;8.484;2023-02-18T08:39:37;94857.53;;;8.27;100.00
39739;BME280;25422;48.286;8.484;2023-02-18T08:42:03;94853.69;;;8.32;100.00
39739;BME280;25422;48.286;8.484;2023-02-18T08:44:29;94867.53;;;8.32;100.00
39739;BME280;25422;48.286;8.484;2023-02-18T08:46:54;94856.44;;;8.40;100.00
39739;BME280;25422;48.286;8.484;2023-02-18T08:49:20;94860.53;;;8.42;100.00
39739;BME280;25422;48.286;8.484;2023-02-18T08:51:49;94856.59;;;8.48;100.00
39739;BME280;25422;48.286;8.484;2023-02-18T08:54:14;94858.09;;;8.51;100.00
39739;BME280;25422;48.286;8.484;2023-02-18T08:56:40;94855.34;;;8.52;100.00
39739;BME280;25422;48.286;8.484;2023-02-18T08:59:05;94854.25;;;8.55;100.00
39739;BME280;25422;48.286;8.484;2023-02-18T09:01:31;94853.41;;;8.54;100.00
39739;BME280;25422;48.286;8.484;2023-02-18T09:03:56;94853.53;;;8.53;100.00
39739;BME280;25422;48.286;8.484;2023-02-18T09:06:22;94846.28;;;8.56;100.00
39739;BME280;25422;48.286;8.484;2023-02-18T09:08:48;94849.84;;;8.55;100.00
39739;BME280;25422;48.286;8.484;2023-02-18T09:11:14;94844.47;;;8.57;100.00
39739;BME280;25422;48.286;8.484;2023-02-18T09:13:40;94850.38;;;8.59;100.00
39739;BME280;25422;48.286;8.484;2023-02-18T09:16:08;94865.34;;;8.57;100.00
39739;BME280;25422;48.286;8.484;2023-02-18T09:18:35;94867.81;;;8.58;100.00
39739;BME280;25422;48.286;8.484;2023-02-18T09:21:02;94867.25;;;8.65;100.00
39739;BME280;25422;48.286;8.484;2023-02-18T09:23:29;94869.16;;;8.63;100.00
39739;BME280;25422;48.286;8.484;2023-02-18T09:25:56;94862.47;;;8.60;100.00
39739;BME280;25422;48.286;8.484;2023-02-18T09:28:22;94867.69;;;8.60;100.00
39739;BME280;25422;48.286;8.484;2023-02-18T09:30:47;94879.88;;;8.59;100.00
39739;BME280;25422;48.286;8.484;2023-02-18T09:33:13;94875.63;;;8.68;100.00
39739;BME280;25422;48.286;8.484;2023-02-18T09:35:42;94888.53;;;8.70;100.00
39739;BME280;25422;48.286;8.484;2023-02-18T09:38:09;94885.50;;;8.74;100.00
39739;BME280;25422;48.286;8.484;2023-02-18T09:40:37;94890.28;;;8.69;100.00
39739;BME280;25422;48.286;8.484;2023-02-18T09:43:03;94890.44;;;8.68;100.00
39739;BME280;25422;48.286;8.484;2023-02-18T09:45:29;94884.13;;;8.70;100.00
39739;BME280;25422;48.286;8.484;2023-02-18T09:47:55;94880.00;;;8.68;100.00
39739;BME280;25422;48.286;8.484;2023-02-18T09:50:23;94877.53;;;8.66;100.00
39739;BME280;25422;48.286;8.484;2023-02-18T09:52:51;94869.84;;;8.74;100.00
39739;BME280;25422;48.286;8.484;2023-02-18T09:55:21;94872.63;;;8.63;100.00
39739;BME280;25422;48.286;8.484;2023-02-18T09:57:52;94868.34;;;8.62;100.00
39739;BME280;25422;48.286;8.484;2023-02-18T10:00:39;94870.69;;;8.65;100.00
39739;BME280;25422;48.286;8.484;2023-02-18T10:03:09;94869.31;;;8.61;100.00
39739;BME280;25422;48.286;8.484;2023-02-18T10:05:36;94872.50;;;8.55;100.00
39739;BME280;25422;48.286;8.484;2023-02-18T10:08:12;94868.78;;;8.57;100.00
39739;BME280;25422;48.286;8.484;2023-02-18T10:10:45;94859.72;;;8.62;100.00
39739;BME280;25422;48.286;8.484;2023-02-18T10:13:14;94857.38;;;8.68;100.00
39739;BME280;25422;48.286;8.484;2023-02-18T10:15:41;94858.03;;;8.70;100.00
39739;BME280;25422;48.286;8.484;2023-02-18T10:18:31;94854.47;;;8.71;100.00
39739;BME280;25422;48.286;8.484;2023-02-18T10:21:15;94861.06;;;8.75;100.00
39739;BME280;25422;48.286;8.484;2023-02-18T10:23:52;94853.22;;;8.75;100.00
39739;BME280;25422;48.286;8.484;2023-02-18T10:26:20;94849.81;;;8.75;100.00
39739;BME280;25422;48.286;8.484;2023-02-18T10:28:46;94858.84;;;8.81;100.00
39739;BME280;25422;48.286;8.484;2023-02-18T10:31:17;94857.19;;;8.80;100.00
39739;BME280;25422;48.286;8.484;2023-02-18T10:36:46;94856.50;;;8.87;100.00
39739;BME280;25422;48.286;8.484;2023-02-18T10:39:31;94855.75;;;8.95;100.00
39739;BME280;25422;48.286;8.484;2023-02-18T10:42:22;94866.16;;;9.15;100.00
39739;BME280;25422;48.286;8.484;2023-02-18T10:45:08;94861.63;;;9.07;100.00
39739;BME280;25422;48.286;8.484;2023-02-18T10:47:53;94863.13;;;9.09;100.00
39739;BME280;25422;48.286;8.484;2023-02-18T10:50:31;94879.19;;;9.15;100.00
39739;BME280;25422;48.286;8.484;2023-02-18T10:53:07;94877.69;;;9.12;100.00
39739;BME280;25422;48.286;8.484;2023-02-18T10:55:37;94882.38;;;9.08;100.00
39739;BME280;25422;48.286;8.484;2023-02-18T10:58:03;94885.28;;;9.05;100.00
39739;BME280;25422;48.286;8.484;2023-02-18T11:00:34;94880.72;;;9.07;100.00
39739;BME280;25422;48.286;8.484;2023-02-18T11:03:16;94889.63;;;9.15;100.00
39739;BME280;25422;48.286;8.484;2023-02-18T11:05:43;94892.53;;;9.11;100.00
39739;BME280;25422;48.286;8.484;2023-02-18T11:08:20;94892.50;;;9.21;100.00
39739;BME280;25422;48.286;8.484;2023-02-18T11:10:48;94889.69;;;9.33;100.00
39739;BME280;25422;48.286;8.484;2023-02-18T11:13:24;94884.47;;;9.33;100.00
39739;BME280;25422;48.286;8.484;2023-02-18T11:16:06;94883.06;;;9.38;100.00
39739;BME280;25422;48.286;8.484;2023-02-18T11:23:47;94881.72;;;10.26;100.00
39739;BME280;25422;48.286;8.484;2023-02-18T11:26:15;94880.28;;;10.13;100.00
39739;BME280;25422;48.286;8.484;2023-02-18T11:31:14;94870.25;;;9.91;100.00
39739;BME280;25422;48.286;8.484;2023-02-18T11:33:43;94868.22;;;9.85;100.00
39739;BME280;25422;48.286;8.484;2023-02-18T11:38:52;94867.31;;;9.58;100.00
39739;BME280;25422;48.286;8.484;2023-02-18T11:43:58;94857.34;;;9.43;100.00
39739;BME280;25422;48.286;8.484;2023-02-18T11:46:25;94860.91;;;9.42;100.00
39739;BME280;25422;48.286;8.484;2023-02-18T11:48:52;94845.25;;;9.42;100.00
39739;BME280;25422;48.286;8.484;2023-02-18T11:54:08;94829.97;;;9.48;100.00
39739;BME280;25422;48.286;8.484;2023-02-18T11:56:54;94832.00;;;9.54;100.00
39739;BME280;25422;48.286;8.484;2023-02-18T11:59:19;94830.50;;;9.51;100.00
39739;BME280;25422;48.286;8.484;2023-02-18T12:02:21;94821.56;;;9.54;100.00
39739;BME280;25422;48.286;8.484;2023-02-18T12:05:12;94808.34;;;9.73;100.00
39739;BME280;25422;48.286;8.484;2023-02-18T12:07:46;94805.81;;;9.82;100.00
39739;BME280;25422;48.286;8.484;2023-02-18T12:10:14;94802.53;;;9.79;100.00
39739;BME280;25422;48.286;8.484;2023-02-18T12:12:50;94804.34;;;9.97;100.00
39739;BME280;25422;48.286;8.484;2023-02-18T12:15:25;94809.84;;;10.56;100.00
39739;BME280;25422;48.286;8.484;2023-02-18T12:20:48;94810.88;;;10.37;100.00
39739;BME280;25422;48.286;8.484;2023-02-18T12:29:12;94801.94;;;10.48;100.00
39739;BME280;25422;48.286;8.484;2023-02-18T12:32:04;94794.94;;;10.49;100.00
39739;BME280;25422;48.286;8.484;2023-02-18T12:34:42;94786.16;;;10.58;100.00
39739;BME280;25422;48.286;8.484;2023-02-18T12:45:44;94788.50;;;10.43;100.00
39739;BME280;25422;48.286;8.484;2023-02-18T12:53:42;94779.97;;;11.44;100.00
39739;BME280;25422;48.286;8.484;2023-02-18T12:59:36;94776.69;;;11.34;100.00
39739;BME280;25422;48.286;8.484;2023-02-18T13:03:03;94769.09;;;11.23;100.00
39739;BME280;25422;48.286;8.484;2023-02-18T13:13:42;94784.41;;;10.67;100.00
39739;BME280;25422;48.286;8.484;2023-02-18T13:16:15;94786.06;;;10.41;100.00
39739;BME280;25422;48.286;8.484;2023-02-18T13:21:23;94782.00;;;10.29;100.00
39739;BME280;25422;48.286;8.484;2023-02-18T13:23:56;94765.75;;;10.35;100.00
39739;BME280;25422;48.286;8.484;2023-02-18T13:26:23;94766.41;;;10.37;100.00
39739;BME280;25422;48.286;8.484;2023-02-18T13:34:32;94755.28;;;10.17;100.00
39739;BME280;25422;48.286;8.484;2023-02-18T13:37:12;94761.94;;;10.11;100.00
39739;BME280;25422;48.286;8.484;2023-02-18T13:39:47;94747.91;;;10.12;100.00
39739;BME280;25422;48.286;8.484;2023-02-18T13:52:48;94741.06;;;9.93;100.00
39739;BME280;25422;48.286;8.484;2023-02-18T13:55:18;94737.19;;;9.98;100.00
39739;BME280;25422;48.286;8.484;2023-02-18T13:57:46;94745.78;;;10.08;100.00
39739;BME280;25422;48.286;8.484;2023-02-18T14:00:23;94747.03;;;9.86;100.00
39739;BME280;25422;48.286;8.484;2023-02-18T14:02:58;94751.63;;;9.84;100.00
39739;BME280;25422;48.286;8.484;2023-02-18T14:05:37;94740.78;;;9.78;100.00
39739;BME280;25422;48.286;8.484;2023-02-18T14:08:15;94748.03;;;9.67;100.00
39739;BME280;25422;48.286;8.484;2023-02-18T14:16:24;94741.69;;;9.69;100.00
39739;BME280;25422;48.286;8.484;2023-02-18T14:18:55;94742.13;;;9.83;100.00
39739;BME280;25422;48.286;8.484;2023-02-18T14:21:35;94736.44;;;9.87;100.00
39739;BME280;25422;48.286;8.484;2023-02-18T14:24:02;94737.56;;;9.85;100.00
39739;BME280;25422;48.286;8.484;2023-02-18T14:26:30;94726.81;;;9.88;100.00
39739;BME280;25422;48.286;8.484;2023-02-18T14:29:00;94733.47;;;9.82;100.00
39739;BME280;25422;48.286;8.484;2023-02-18T14:31:32;94729.59;;;9.86;100.00
39739;BME280;25422;48.286;8.484;2023-02-18T14:50:17;94733.22;;;9.93;100.00
39739;BME280;25422;48.286;8.484;2023-02-18T14:52:47;94726.50;;;9.91;100.00
39739;BME280;25422;48.286;8.484;2023-02-18T14:55:26;94719.84;;;9.96;100.00
39739;BME280;25422;48.286;8.484;2023-02-18T14:57:56;94727.63;;;9.88;100.00
39739;BME280;25422;48.286;8.484;2023-02-18T15:00:28;94735.72;;;9.77;100.00
39739;BME280;25422;48.286;8.484;2023-02-18T15:02:58;94732.50;;;9.65;100.00
39739;BME280;25422;48.286;8.484;2023-02-18T15:05:27;94731.00;;;9.62;100.00
39739;BME280;25422;48.286;8.484;2023-02-18T15:08:05;94733.19;;;9.67;100.00
39739;BME280;25422;48.286;8.484;2023-02-18T15:10:34;94727.28;;;9.65;100.00